YV2392 SVMG-TGPY
Flight info
| Callsign | YV2392 |
|---|---|
| Flight time | 0h 38m |
| Altitude | 15500 |
| Route | MTA GND |
| Aircraft | TBM8/L-V/N |
Departure
| Time | 2026-04-23 19:24 |
|---|---|
| Airport | Del Caribe Santiago Mariño International Airport (SVMG) |
Arrival
| Time | 2026-04-23 20:02 |
|---|---|
| Airport | Maurice Bishop International Airport (TGPY) |
| Time | Latitude | Longitude | Altitude | Speed | Heading |
|---|---|---|---|---|---|
| 2026-04-23 19:16 | 10.91646 | -63.96471 | 59 ft | 0 kts | 77° |
| 2026-04-23 19:19 | 10.91468 | -63.96479 | 54 ft | 27 kts | 258° |
| 2026-04-23 19:19 | 10.91435 | -63.96668 | 54 ft | 27 kts | 260° |
| 2026-04-23 19:20 | 10.91367 | -63.97003 | 57 ft | 23 kts | 258° |
| 2026-04-23 19:20 | 10.91332 | -63.97177 | 57 ft | 28 kts | 258° |
| 2026-04-23 19:20 | 10.91290 | -63.97393 | 54 ft | 34 kts | 257° |
| 2026-04-23 19:20 | 10.91230 | -63.97651 | 55 ft | 40 kts | 257° |
| 2026-04-23 19:21 | 10.91173 | -63.97950 | 53 ft | 45 kts | 261° |
| 2026-04-23 19:21 | 10.91036 | -63.98123 | 65 ft | 0 kts | 119° |
| 2026-04-23 19:22 | 10.91015 | -63.98083 | 65 ft | 23 kts | 113° |
| 2026-04-23 19:23 | 10.91042 | -63.97751 | 67 ft | 71 kts | 77° |
| 2026-04-23 19:23 | 10.91167 | -63.97119 | 72 ft | 107 kts | 77° |
| 2026-04-23 19:23 | 10.91323 | -63.96334 | 373 ft | 111 kts | 77° |
| 2026-04-23 19:24 | 10.91589 | -63.95156 | 1162 ft | 100 kts | 68° |
| 2026-04-23 19:25 | 10.91879 | -63.94370 | 1469 ft | 115 kts | 75° |
| 2026-04-23 19:25 | 10.92524 | -63.92859 | 2087 ft | 129 kts | 66° |
| 2026-04-23 19:26 | 10.93144 | -63.91433 | 2602 ft | 138 kts | 68° |
| 2026-04-23 19:26 | 10.93426 | -63.90499 | 3030 ft | 142 kts | 76° |
| 2026-04-23 19:27 | 10.93997 | -63.88444 | 3793 ft | 154 kts | 65° |
| 2026-04-23 19:27 | 10.95576 | -63.85491 | 5109 ft | 161 kts | 63° |
| 2026-04-23 19:28 | 10.96691 | -63.83454 | 5941 ft | 170 kts | 65° |
| 2026-04-23 19:28 | 10.97322 | -63.81134 | 6769 ft | 172 kts | 71° |
| 2026-04-23 19:29 | 10.97966 | -63.80091 | 7142 ft | 176 kts | 55° |
| 2026-04-23 19:29 | 10.99405 | -63.78101 | 7993 ft | 175 kts | 54° |
| 2026-04-23 19:30 | 11.00748 | -63.75997 | 8708 ft | 181 kts | 66° |
| 2026-04-23 19:30 | 11.01188 | -63.74791 | 9040 ft | 183 kts | 80° |
| 2026-04-23 19:30 | 11.01728 | -63.72243 | 9773 ft | 188 kts | 61° |
| 2026-04-23 19:31 | 11.02496 | -63.71192 | 10209 ft | 184 kts | 47° |
| 2026-04-23 19:31 | 11.03359 | -63.70207 | 10506 ft | 189 kts | 50° |
| 2026-04-23 19:31 | 11.04192 | -63.69174 | 10903 ft | 186 kts | 51° |
| 2026-04-23 19:31 | 11.04972 | -63.68130 | 11273 ft | 187 kts | 56° |
| 2026-04-23 19:32 | 11.05717 | -63.67020 | 11578 ft | 192 kts | 57° |
| 2026-04-23 19:32 | 11.06439 | -63.65891 | 12005 ft | 188 kts | 58° |
| 2026-04-23 19:32 | 11.07126 | -63.64777 | 12402 ft | 187 kts | 59° |
| 2026-04-23 19:32 | 11.07842 | -63.63628 | 12604 ft | 198 kts | 59° |
| 2026-04-23 19:33 | 11.08513 | -63.62393 | 12955 ft | 197 kts | 66° |
| 2026-04-23 19:33 | 11.08977 | -63.61112 | 13435 ft | 191 kts | 76° |
| 2026-04-23 19:33 | 11.09689 | -63.58432 | 13924 ft | 203 kts | 78° |
| 2026-04-23 19:34 | 11.09970 | -63.57046 | 14338 ft | 196 kts | 79° |
| 2026-04-23 19:34 | 11.10313 | -63.55720 | 14730 ft | 193 kts | 75° |
| 2026-04-23 19:34 | 11.11411 | -63.53086 | 15183 ft | 205 kts | 66° |
| 2026-04-23 19:35 | 11.12044 | -63.51782 | 15468 ft | 208 kts | 65° |
| 2026-04-23 19:35 | 11.12726 | -63.50424 | 15528 ft | 223 kts | 63° |
| 2026-04-23 19:35 | 11.13493 | -63.49004 | 15614 ft | 234 kts | 63° |
| 2026-04-23 19:35 | 11.13905 | -63.48233 | 15603 ft | 242 kts | 63° |
| 2026-04-23 19:36 | 11.14438 | -63.47263 | 15459 ft | 257 kts | 62° |
| 2026-04-23 19:36 | 11.15318 | -63.45634 | 15447 ft | 266 kts | 63° |
| 2026-04-23 19:36 | 11.16200 | -63.43950 | 15459 ft | 273 kts | 63° |
| 2026-04-23 19:36 | 11.17106 | -63.42219 | 15403 ft | 281 kts | 63° |
| 2026-04-23 19:37 | 11.18006 | -63.40436 | 15380 ft | 284 kts | 66° |
| 2026-04-23 19:37 | 11.18795 | -63.38609 | 15516 ft | 280 kts | 69° |
| 2026-04-23 19:37 | 11.19640 | -63.36833 | 15589 ft | 280 kts | 61° |
| 2026-04-23 19:37 | 11.20805 | -63.35211 | 15433 ft | 289 kts | 49° |
| 2026-04-23 19:38 | 11.22163 | -63.33691 | 15400 ft | 290 kts | 47° |
| 2026-04-23 19:38 | 11.23587 | -63.32249 | 15460 ft | 288 kts | 46° |
| 2026-04-23 19:38 | 11.24986 | -63.30765 | 15344 ft | 293 kts | 46° |
| 2026-04-23 19:38 | 11.26351 | -63.29225 | 15311 ft | 293 kts | 54° |
| 2026-04-23 19:39 | 11.27418 | -63.27467 | 15307 ft | 291 kts | 65° |
| 2026-04-23 19:39 | 11.28214 | -63.25571 | 15294 ft | 291 kts | 69° |
| 2026-04-23 19:39 | 11.28931 | -63.23653 | 15343 ft | 288 kts | 71° |
| 2026-04-23 19:39 | 11.29589 | -63.21749 | 15352 ft | 287 kts | 73° |
| 2026-04-23 19:40 | 11.30195 | -63.19818 | 15380 ft | 287 kts | 75° |
| 2026-04-23 19:40 | 11.30834 | -63.17890 | 15381 ft | 288 kts | 71° |
| 2026-04-23 19:40 | 11.31596 | -63.16001 | 15386 ft | 288 kts | 67° |
| 2026-04-23 19:40 | 11.32485 | -63.14165 | 15381 ft | 289 kts | 63° |
| 2026-04-23 19:41 | 11.33403 | -63.12350 | 15432 ft | 287 kts | 64° |
| 2026-04-23 19:41 | 11.34295 | -63.10521 | 15380 ft | 290 kts | 65° |
| 2026-04-23 19:41 | 11.35144 | -63.08662 | 15394 ft | 288 kts | 67° |
| 2026-04-23 19:41 | 11.35922 | -63.06783 | 15420 ft | 288 kts | 70° |
| 2026-04-23 19:42 | 11.36634 | -63.04866 | 15371 ft | 290 kts | 72° |
| 2026-04-23 19:42 | 11.37338 | -63.02947 | 15416 ft | 288 kts | 69° |
| 2026-04-23 19:42 | 11.38120 | -63.01069 | 15415 ft | 289 kts | 67° |
| 2026-04-23 19:42 | 11.38969 | -62.99209 | 15427 ft | 289 kts | 65° |
| 2026-04-23 19:43 | 11.39856 | -62.97382 | 15480 ft | 287 kts | 64° |
| 2026-04-23 19:43 | 11.40789 | -62.95568 | 15419 ft | 290 kts | 63° |
| 2026-04-23 19:43 | 11.41762 | -62.93767 | 15483 ft | 288 kts | 62° |
| 2026-04-23 19:43 | 11.42757 | -62.92005 | 15524 ft | 287 kts | 60° |
| 2026-04-23 19:44 | 11.43789 | -62.90278 | 15458 ft | 290 kts | 59° |
| 2026-04-23 19:44 | 11.44837 | -62.88525 | 15485 ft | 289 kts | 59° |
| 2026-04-23 19:44 | 11.45890 | -62.86786 | 15501 ft | 289 kts | 59° |
| 2026-04-23 19:44 | 11.46950 | -62.85043 | 15481 ft | 290 kts | 59° |
| 2026-04-23 19:45 | 11.48028 | -62.83313 | 15507 ft | 289 kts | 58° |
| 2026-04-23 19:45 | 11.49151 | -62.81612 | 15503 ft | 289 kts | 57° |
| 2026-04-23 19:45 | 11.50210 | -62.79863 | 15488 ft | 290 kts | 61° |
| 2026-04-23 19:45 | 11.51187 | -62.78066 | 15489 ft | 290 kts | 62° |
| 2026-04-23 19:46 | 11.52153 | -62.76265 | 15512 ft | 289 kts | 62° |
| 2026-04-23 19:46 | 11.53121 | -62.74471 | 15528 ft | 289 kts | 62° |
| 2026-04-23 19:46 | 11.54083 | -62.72664 | 15487 ft | 291 kts | 62° |
| 2026-04-23 19:46 | 11.55061 | -62.70860 | 15517 ft | 289 kts | 62° |
| 2026-04-23 19:47 | 11.56024 | -62.69067 | 15538 ft | 289 kts | 63° |
| 2026-04-23 19:47 | 11.56994 | -62.67260 | 15470 ft | 292 kts | 62° |
| 2026-04-23 19:47 | 11.57971 | -62.65454 | 15508 ft | 289 kts | 63° |
| 2026-04-23 19:47 | 11.58909 | -62.63640 | 15506 ft | 290 kts | 64° |
| 2026-04-23 19:48 | 11.59841 | -62.61811 | 15489 ft | 291 kts | 63° |
| 2026-04-23 19:48 | 11.60792 | -62.59994 | 15513 ft | 289 kts | 62° |
| 2026-04-23 19:48 | 11.61784 | -62.58201 | 15496 ft | 291 kts | 60° |
| 2026-04-23 19:48 | 11.62778 | -62.56435 | 15478 ft | 291 kts | 63° |
| 2026-04-23 19:49 | 11.63679 | -62.54591 | 15471 ft | 291 kts | 65° |
| 2026-04-23 19:49 | 11.64510 | -62.52713 | 15471 ft | 290 kts | 68° |
| 2026-04-23 19:49 | 11.65281 | -62.50816 | 15501 ft | 289 kts | 69° |
| 2026-04-23 19:49 | 11.66042 | -62.48909 | 15470 ft | 290 kts | 69° |
| 2026-04-23 19:50 | 11.66794 | -62.46997 | 15466 ft | 290 kts | 70° |
| 2026-04-23 19:50 | 11.67490 | -62.45074 | 15505 ft | 288 kts | 72° |
| 2026-04-23 19:50 | 11.68120 | -62.43121 | 15447 ft | 291 kts | 74° |
| 2026-04-23 19:50 | 11.68657 | -62.41145 | 15414 ft | 286 kts | 79° |
| 2026-04-23 19:51 | 11.68954 | -62.39137 | 15205 ft | 288 kts | 84° |
| 2026-04-23 19:51 | 11.69350 | -62.37122 | 14974 ft | 290 kts | 76° |
| 2026-04-23 19:51 | 11.69982 | -62.35175 | 14850 ft | 289 kts | 70° |
| 2026-04-23 19:51 | 11.70720 | -62.33255 | 14604 ft | 291 kts | 69° |
| 2026-04-23 19:52 | 11.71523 | -62.31351 | 14338 ft | 293 kts | 66° |
| 2026-04-23 19:52 | 11.72378 | -62.29483 | 14111 ft | 294 kts | 65° |
| 2026-04-23 19:52 | 11.73249 | -62.27605 | 13943 ft | 291 kts | 64° |
| 2026-04-23 19:52 | 11.74188 | -62.25782 | 13598 ft | 290 kts | 64° |
| 2026-04-23 19:53 | 11.75098 | -62.23934 | 13035 ft | 292 kts | 64° |
| 2026-04-23 19:53 | 11.76010 | -62.22094 | 12629 ft | 288 kts | 63° |
| 2026-04-23 19:53 | 11.76941 | -62.20296 | 12228 ft | 285 kts | 62° |
| 2026-04-23 19:53 | 11.77854 | -62.18498 | 11744 ft | 285 kts | 63° |
| 2026-04-23 19:54 | 11.78769 | -62.16713 | 11334 ft | 282 kts | 63° |
| 2026-04-23 19:54 | 11.79692 | -62.14967 | 10933 ft | 279 kts | 60° |
| 2026-04-23 19:54 | 11.80741 | -62.13300 | 10439 ft | 279 kts | 56° |
| 2026-04-23 19:54 | 11.81894 | -62.11721 | 10066 ft | 275 kts | 52° |
| 2026-04-23 19:55 | 11.83095 | -62.10209 | 9662 ft | 272 kts | 51° |
| 2026-04-23 19:55 | 11.84290 | -62.08703 | 9124 ft | 273 kts | 52° |
| 2026-04-23 19:55 | 11.85412 | -62.07194 | 8723 ft | 268 kts | 54° |
| 2026-04-23 19:55 | 11.86474 | -62.05638 | 8236 ft | 267 kts | 57° |
| 2026-04-23 19:56 | 11.87475 | -62.04041 | 7748 ft | 266 kts | 60° |
| 2026-04-23 19:56 | 11.88507 | -62.02515 | 7379 ft | 260 kts | 50° |
| 2026-04-23 19:56 | 11.89808 | -62.01228 | 6848 ft | 261 kts | 41° |
| 2026-04-23 19:56 | 11.91229 | -62.00106 | 6502 ft | 254 kts | 37° |
| 2026-04-23 19:57 | 11.92638 | -61.99043 | 6032 ft | 249 kts | 39° |
| 2026-04-23 19:57 | 11.93990 | -61.97952 | 5480 ft | 246 kts | 41° |
| 2026-04-23 19:57 | 11.95289 | -61.96834 | 4902 ft | 242 kts | 43° |
| 2026-04-23 19:57 | 11.96470 | -61.95696 | 4388 ft | 225 kts | 50° |
| 2026-04-23 19:58 | 11.97250 | -61.94391 | 3856 ft | 214 kts | 74° |
| 2026-04-23 19:58 | 11.97705 | -61.92936 | 3231 ft | 212 kts | 68° |
| 2026-04-23 19:58 | 11.98372 | -61.91631 | 2818 ft | 201 kts | 58° |
| 2026-04-23 19:58 | 11.99154 | -61.90574 | 2834 ft | 178 kts | 53° |
| 2026-04-23 19:59 | 11.99900 | -61.89597 | 2727 ft | 171 kts | 54° |
| 2026-04-23 19:59 | 12.00421 | -61.88510 | 2222 ft | 176 kts | 76° |
| 2026-04-23 19:59 | 12.00652 | -61.87265 | 1777 ft | 172 kts | 82° |
| 2026-04-23 19:59 | 12.00844 | -61.86132 | 1680 ft | 154 kts | 82° |
| 2026-04-23 20:00 | 12.00868 | -61.85083 | 1463 ft | 141 kts | 98° |
| 2026-04-23 20:00 | 12.00591 | -61.84129 | 1150 ft | 140 kts | 108° |
| 2026-04-23 20:00 | 12.00408 | -61.83181 | 870 ft | 135 kts | 89° |
| 2026-04-23 20:00 | 12.00425 | -61.82265 | 747 ft | 125 kts | 92° |
| 2026-04-23 20:01 | 12.00429 | -61.81496 | 580 ft | 93 kts | 95° |
| 2026-04-23 20:01 | 12.00431 | -61.80863 | 380 ft | 88 kts | 97° |
| 2026-04-23 20:01 | 12.00418 | -61.80227 | 165 ft | 92 kts | 99° |
| 2026-04-23 20:01 | 12.00415 | -61.79599 | 40 ft | 77 kts | 100° |
| 2026-04-23 20:02 | 12.00404 | -61.79169 | 34 ft | 43 kts | 86° |
| 2026-04-23 20:02 | 12.00409 | -61.78895 | 36 ft | 42 kts | 92° |
| 2026-04-23 20:02 | 12.00407 | -61.78638 | 37 ft | 20 kts | 86° |
| 2026-04-23 20:02 | 12.00505 | -61.78596 | 37 ft | 16 kts | 0° |
| 2026-04-23 20:03 | 12.00572 | -61.78640 | 39 ft | 14 kts | 273° |
| 2026-04-23 20:03 | 12.00576 | -61.78754 | 39 ft | 15 kts | 301° |
| 2026-04-23 20:03 | 12.00647 | -61.78742 | 42 ft | 11 kts | 44° |
| 2026-04-23 20:03 | 12.00654 | -61.78725 | 42 ft | 0 kts | 95° |